createdAt,value
2019-05-06T00:01:19.494Z,2.53
2019-05-06T00:03:49.512Z,2.47
2019-05-06T00:06:19.547Z,2.87
2019-05-06T00:08:49.632Z,3.00
2019-05-06T00:11:19.709Z,2.63
2019-05-06T00:13:49.727Z,3.00
2019-05-06T00:16:19.771Z,3.20
2019-05-06T00:18:49.775Z,3.00
2019-05-06T00:21:20.787Z,3.03
2019-05-06T00:23:54.562Z,3.53
2019-05-06T00:26:39.731Z,3.13
2019-05-06T00:29:15.533Z,3.03
2019-05-06T00:31:45.632Z,3.00
2019-05-06T00:34:15.644Z,2.97
2019-05-06T00:36:45.675Z,2.83
2019-05-06T00:39:27.906Z,2.80
2019-05-06T00:42:03.935Z,2.90
2019-05-06T00:44:34.650Z,3.10
2019-05-06T00:47:04.846Z,3.07
2019-05-06T00:49:34.897Z,3.20
2019-05-06T00:52:04.915Z,2.97
2019-05-06T00:54:34.950Z,2.90
2019-05-06T00:57:04.967Z,3.40
2019-05-06T00:59:35.020Z,3.00
2019-05-06T01:02:05.134Z,3.30
2019-05-06T01:04:35.274Z,3.50
2019-05-06T01:07:05.303Z,3.00
2019-05-06T01:09:35.395Z,2.73
2019-05-06T01:12:06.125Z,3.00
2019-05-06T01:14:40.496Z,2.57
2019-05-06T01:17:10.606Z,3.40
2019-05-06T01:19:40.616Z,2.87
2019-05-06T01:22:10.655Z,2.77
2019-05-06T01:24:41.543Z,2.87
2019-05-06T01:27:11.590Z,2.90
2019-05-06T01:29:41.604Z,2.87
2019-05-06T01:32:11.631Z,3.37
2019-05-06T01:34:41.644Z,2.77
2019-05-06T01:37:11.757Z,3.27
2019-05-06T01:39:54.197Z,2.80
2019-05-06T01:42:34.292Z,2.67
2019-05-06T01:45:04.728Z,3.10
2019-05-06T01:47:34.980Z,3.10
2019-05-06T01:50:05.113Z,2.83
2019-05-06T01:52:35.141Z,2.80
2019-05-06T01:55:05.307Z,3.33
2019-05-06T01:57:35.320Z,3.30
2019-05-06T02:00:06.383Z,2.80
2019-05-06T02:02:36.869Z,3.00
2019-05-06T02:05:06.896Z,3.17
2019-05-06T02:07:36.913Z,2.90
2019-05-06T02:10:07.061Z,2.83
2019-05-06T02:12:37.104Z,3.07
2019-05-06T02:15:07.160Z,3.20
2019-05-06T02:17:37.224Z,3.23
2019-05-06T02:20:07.626Z,3.27
2019-05-06T02:22:44.685Z,3.53
2019-05-06T02:25:18.733Z,2.90
2019-05-06T02:27:48.765Z,2.80
2019-05-06T02:30:40.483Z,3.20
2019-05-06T02:33:35.380Z,3.20
2019-05-06T02:36:29.313Z,3.00
2019-05-06T02:38:59.427Z,2.97
2019-05-06T02:41:29.443Z,3.03
2019-05-06T02:43:59.477Z,3.00
2019-05-06T02:46:29.503Z,3.03
2019-05-06T02:49:19.506Z,3.10
2019-05-06T02:51:49.524Z,2.90
2019-05-06T02:54:19.550Z,2.93
2019-05-06T02:56:49.577Z,2.90
2019-05-06T02:59:19.664Z,3.23
2019-05-06T03:01:49.705Z,2.93
2019-05-06T03:04:19.741Z,2.90
2019-05-06T03:06:49.772Z,2.83
2019-05-06T03:09:19.791Z,3.63
2019-05-06T03:11:49.834Z,2.93
2019-05-06T03:14:19.882Z,3.27
2019-05-06T03:16:53.354Z,2.70
2019-05-06T03:19:24.053Z,3.33
2019-05-06T03:22:13.326Z,3.13
2019-05-06T03:25:06.200Z,3.03
2019-05-06T03:27:34.961Z,3.53
2019-05-06T03:30:05.140Z,3.17
2019-05-06T03:32:41.111Z,3.30
2019-05-06T03:35:24.961Z,3.50
2019-05-06T03:37:38.881Z,3.27
2019-05-06T03:40:08.936Z,3.53
2019-05-06T03:42:38.959Z,3.67
2019-05-06T03:45:17.516Z,3.50
2019-05-06T03:48:05.374Z,3.40
2019-05-06T03:50:33.809Z,2.73
2019-05-06T03:53:03.875Z,3.47
2019-05-06T03:55:34.475Z,3.27
2019-05-06T03:58:04.511Z,3.13
2019-05-06T04:00:34.837Z,3.47
2019-05-06T04:03:04.870Z,3.40
2019-05-06T04:05:34.899Z,3.80
2019-05-06T04:08:04.932Z,3.73
2019-05-06T04:10:36.993Z,3.87
2019-05-06T04:13:07.126Z,3.83
2019-05-06T04:16:03.553Z,3.80
2019-05-06T04:18:33.501Z,3.23
2019-05-06T04:21:13.454Z,3.50
2019-05-06T04:23:57.166Z,3.70
2019-05-06T04:26:48.886Z,3.70
2019-05-06T04:29:18.930Z,3.70
2019-05-06T04:31:49.159Z,3.43
2019-05-06T04:34:19.973Z,3.80
2019-05-06T04:36:53.425Z,3.53
2019-05-06T04:39:23.563Z,3.57
2019-05-06T04:41:54.055Z,3.83
2019-05-06T04:44:25.024Z,3.97
2019-05-06T04:46:55.348Z,3.70
2019-05-06T04:49:25.360Z,3.50
2019-05-06T04:51:55.422Z,3.73
2019-05-06T04:54:26.590Z,3.73
2019-05-06T04:56:56.947Z,3.73
2019-05-06T04:59:27.028Z,3.63
2019-05-06T05:01:57.057Z,3.70
2019-05-06T05:04:32.318Z,3.90
2019-05-06T05:06:58.937Z,3.63
2019-05-06T05:09:28.982Z,3.47
2019-05-06T05:12:02.863Z,4.27
2019-05-06T05:14:38.010Z,4.00
2019-05-06T05:17:45.353Z,4.40
2019-05-06T05:20:15.389Z,4.10
2019-05-06T05:22:45.426Z,4.13
2019-05-06T05:25:15.465Z,4.50
2019-05-06T05:27:45.481Z,4.30
2019-05-06T05:30:15.604Z,4.27
2019-05-06T05:32:45.655Z,4.37
2019-05-06T05:35:16.638Z,4.30
2019-05-06T05:37:46.690Z,4.00
2019-05-06T05:40:16.708Z,4.13
2019-05-06T05:42:59.618Z,4.30
2019-05-06T05:45:29.635Z,4.50
2019-05-06T05:48:02.863Z,4.00
2019-05-06T05:50:36.949Z,4.53
2019-05-06T05:53:06.994Z,4.73
2019-05-06T05:55:37.014Z,4.90
2019-05-06T05:58:07.050Z,4.57
2019-05-06T06:00:37.068Z,4.40
2019-05-06T06:03:07.483Z,4.30
2019-05-06T06:05:37.566Z,4.87
2019-05-06T06:08:07.600Z,4.80
2019-05-06T06:10:52.469Z,4.90
2019-05-06T06:13:22.530Z,4.50
2019-05-06T06:16:15.565Z,4.80
2019-05-06T06:18:53.337Z,4.43
2019-05-06T06:21:32.790Z,4.73
2019-05-06T06:24:07.795Z,4.90
2019-05-06T06:26:37.839Z,4.57
2019-05-06T06:29:07.918Z,4.70
2019-05-06T06:31:52.477Z,4.63
2019-05-06T06:34:27.655Z,4.10
2019-05-06T06:37:28.813Z,4.27
2019-05-06T06:40:01.746Z,4.50
2019-05-06T06:42:33.545Z,4.87
2019-05-06T06:45:03.807Z,4.40
2019-05-06T06:47:33.910Z,4.63
2019-05-06T06:50:03.964Z,5.03
2019-05-06T06:52:34.020Z,4.80
2019-05-06T06:55:04.066Z,4.47
2019-05-06T06:57:42.423Z,4.87
2019-05-06T07:00:22.546Z,4.67
2019-05-06T07:03:17.551Z,4.20
2019-05-06T07:06:18.740Z,4.47
2019-05-06T07:08:48.806Z,4.03
2019-05-06T07:11:18.929Z,4.47
2019-05-06T07:13:53.457Z,4.33
2019-05-06T07:16:23.667Z,4.20
2019-05-06T07:18:53.704Z,4.07
2019-05-06T07:21:47.482Z,4.40
2019-05-06T07:24:17.533Z,4.17
2019-05-06T07:26:52.441Z,4.60
2019-05-06T07:29:26.317Z,4.07
2019-05-06T07:31:54.217Z,4.40
2019-05-06T07:34:24.278Z,4.80
2019-05-06T07:36:54.304Z,4.80
2019-05-06T07:39:24.347Z,4.77
2019-05-06T07:41:57.296Z,4.20
2019-05-06T07:45:06.574Z,5.37
2019-05-06T07:47:53.141Z,5.57
2019-05-06T07:50:23.236Z,5.17
2019-05-06T07:53:08.920Z,5.07
2019-05-06T07:55:39.073Z,4.63
2019-05-06T07:58:09.131Z,4.47
2019-05-06T08:00:39.170Z,4.80
2019-05-06T08:03:09.316Z,4.83
2019-05-06T08:05:54.264Z,4.37
2019-05-06T08:08:12.981Z,4.30
2019-05-06T08:10:42.833Z,4.10
2019-05-06T08:13:13.150Z,3.80
2019-05-06T08:15:43.194Z,4.00
2019-05-06T08:18:14.228Z,4.07
2019-05-06T08:20:45.073Z,3.90
2019-05-06T08:23:22.034Z,4.17
2019-05-06T08:25:54.313Z,4.10
2019-05-06T08:28:36.853Z,4.33
2019-05-06T08:30:55.611Z,4.20
2019-05-06T08:33:27.619Z,2.93
2019-05-06T08:36:08.909Z,3.00
2019-05-06T08:38:32.690Z,4.03
2019-05-06T08:41:02.805Z,3.20
2019-05-06T08:43:32.808Z,2.63
2019-05-06T08:46:03.298Z,2.77
2019-05-06T08:48:33.377Z,2.37
2019-05-06T08:51:09.670Z,2.60
2019-05-06T08:53:49.962Z,2.17
2019-05-06T08:56:22.144Z,2.20
2019-05-06T08:58:52.911Z,2.10
2019-05-06T09:01:54.917Z,1.80
2019-05-06T09:04:24.942Z,2.10
2019-05-06T09:06:55.018Z,2.03
2019-05-06T09:09:25.017Z,1.90
2019-05-06T09:11:55.189Z,2.00
2019-05-06T09:14:25.280Z,2.30
2019-05-06T09:16:55.331Z,2.37
2019-05-06T09:19:25.373Z,2.20
2019-05-06T09:21:55.583Z,2.47
2019-05-06T09:24:26.595Z,2.43
2019-05-06T09:27:03.020Z,2.60
2019-05-06T09:29:53.494Z,2.43
2019-05-06T09:32:35.963Z,2.23
2019-05-06T09:35:03.227Z,2.20
2019-05-06T09:37:33.366Z,2.47
2019-05-06T09:40:03.472Z,2.60
2019-05-06T09:42:35.353Z,2.40
2019-05-06T09:45:05.877Z,2.50
2019-05-06T09:47:53.440Z,2.50
2019-05-06T09:50:37.301Z,2.50
2019-05-06T09:53:13.083Z,2.30
2019-05-06T09:56:05.226Z,2.23
2019-05-06T09:58:37.861Z,2.37
2019-05-06T10:01:08.106Z,2.07
2019-05-06T10:03:38.289Z,2.20
2019-05-06T10:06:08.326Z,2.10
2019-05-06T10:08:38.414Z,2.20
2019-05-06T10:11:08.554Z,2.17
2019-05-06T10:13:38.640Z,2.20
2019-05-06T10:16:08.748Z,2.20
2019-05-06T10:18:38.805Z,2.47
2019-05-06T10:21:08.831Z,2.40
2019-05-06T10:23:39.065Z,2.13
2019-05-06T10:26:09.170Z,2.10
2019-05-06T10:28:47.208Z,2.50
2019-05-06T10:31:18.389Z,2.20
2019-05-06T10:34:05.768Z,2.20
2019-05-06T10:36:42.895Z,2.00
2019-05-06T10:39:13.040Z,2.37
2019-05-06T10:41:44.757Z,2.03
2019-05-06T10:44:37.127Z,2.10
2019-05-06T10:47:07.154Z,2.40
2019-05-06T10:49:37.274Z,2.60
2019-05-06T10:52:21.922Z,2.50
2019-05-06T10:54:52.005Z,2.37
2019-05-06T10:57:29.790Z,1.93
2019-05-06T10:59:59.909Z,2.43
2019-05-06T11:02:58.014Z,2.30
2019-05-06T11:05:28.089Z,2.33
2019-05-06T11:07:58.122Z,2.07
2019-05-06T11:10:37.077Z,2.23
2019-05-06T11:12:59.913Z,2.60
2019-05-06T11:15:32.832Z,2.30
2019-05-06T11:18:04.128Z,2.40
2019-05-06T11:20:33.649Z,2.13
2019-05-06T11:23:03.719Z,7.13
2019-05-06T11:25:36.187Z,2.47
2019-05-06T11:28:25.259Z,2.30
2019-05-06T11:31:09.348Z,2.07
2019-05-06T11:33:48.554Z,2.27
2019-05-06T11:36:37.575Z,2.00
2019-05-06T11:39:08.014Z,2.20
2019-05-06T11:41:38.152Z,2.00
2019-05-06T11:44:09.113Z,2.30
2019-05-06T11:46:39.433Z,2.07
2019-05-06T11:49:09.446Z,2.20
2019-05-06T11:51:39.527Z,2.40
2019-05-06T11:54:19.354Z,1.90
2019-05-06T11:56:50.654Z,2.23
2019-05-06T11:59:14.065Z,2.23
2019-05-06T12:01:53.382Z,2.47
2019-05-06T12:04:23.357Z,1.70
2019-05-06T12:07:09.883Z,1.87
2019-05-06T12:09:27.180Z,2.00
2019-05-06T12:11:57.309Z,1.93
2019-05-06T12:14:27.366Z,1.90
2019-05-06T12:16:57.411Z,1.67
2019-05-06T12:19:27.463Z,2.00
2019-05-06T12:21:57.494Z,1.90
2019-05-06T12:24:27.542Z,1.90
2019-05-06T12:26:57.685Z,1.60
2019-05-06T12:29:27.777Z,2.90
2019-05-06T12:32:19.536Z,2.93
2019-05-06T12:34:49.573Z,2.57
2019-05-06T12:37:21.598Z,2.17
2019-05-06T12:39:55.413Z,1.90
2019-05-06T12:42:28.249Z,2.30
2019-05-06T12:45:15.637Z,1.90
2019-05-06T12:48:04.609Z,1.93
2019-05-06T12:50:34.653Z,1.83
2019-05-06T12:53:04.667Z,1.90
2019-05-06T12:55:34.803Z,2.30
2019-05-06T12:58:04.838Z,1.80
2019-05-06T13:00:34.868Z,1.70
2019-05-06T13:03:04.940Z,1.87
2019-05-06T13:05:34.940Z,1.70
2019-05-06T13:08:06.445Z,1.90
2019-05-06T13:10:36.810Z,2.00
2019-05-06T13:13:06.852Z,2.10
2019-05-06T13:15:37.930Z,1.80
2019-05-06T13:18:08.055Z,1.70
2019-05-06T13:20:38.151Z,2.10
2019-05-06T13:23:29.557Z,1.83
2019-05-06T13:26:01.923Z,2.10
2019-05-06T13:28:33.569Z,1.77
2019-05-06T13:31:16.495Z,2.00
2019-05-06T13:34:02.881Z,3.20
2019-05-06T13:36:33.467Z,2.03
2019-05-06T13:39:13.879Z,2.10
2019-05-06T13:41:35.747Z,1.97
2019-05-06T13:44:13.422Z,1.63
2019-05-06T13:46:53.345Z,1.80
2019-05-06T13:49:52.220Z,1.70
2019-05-06T13:52:25.764Z,1.90
2019-05-06T13:54:55.814Z,2.00
2019-05-06T13:57:28.909Z,1.70
2019-05-06T13:59:57.660Z,1.63
2019-05-06T14:02:52.905Z,1.43
2019-05-06T14:05:22.033Z,1.70
2019-05-06T14:07:52.748Z,2.23
2019-05-06T14:10:23.060Z,1.80
2019-05-06T14:12:53.421Z,2.00
2019-05-06T14:15:23.535Z,1.97
2019-05-06T14:17:53.588Z,1.33
2019-05-06T14:20:24.554Z,1.63
2019-05-06T14:22:54.597Z,1.80
2019-05-06T14:25:43.613Z,1.90
2019-05-06T14:28:36.981Z,1.80
2019-05-06T14:31:11.573Z,2.00
2019-05-06T14:33:42.814Z,1.77
2019-05-06T14:36:13.049Z,1.70
2019-05-06T14:38:43.223Z,2.00
2019-05-06T14:41:16.601Z,1.70
2019-05-06T14:43:46.860Z,1.80
2019-05-06T14:46:17.170Z,1.87
2019-05-06T14:48:47.220Z,1.77
2019-05-06T14:51:17.314Z,1.60
2019-05-06T14:53:47.358Z,1.83
2019-05-06T14:56:23.181Z,1.73
2019-05-06T14:59:08.438Z,1.87
2019-05-06T15:01:39.955Z,1.93
2019-05-06T15:04:12.293Z,1.63
2019-05-06T15:06:42.507Z,0.93
2019-05-06T15:09:13.504Z,1.53
2019-05-06T15:11:43.741Z,1.80
2019-05-06T15:14:13.808Z,2.00
2019-05-06T15:16:43.868Z,1.77
2019-05-06T15:19:13.882Z,1.70
2019-05-06T15:21:43.892Z,1.60
2019-05-06T15:24:14.688Z,1.90
2019-05-06T15:26:44.761Z,1.57
2019-05-06T15:29:14.817Z,1.80
2019-05-06T15:32:15.760Z,1.73
2019-05-06T15:35:04.746Z,1.60
2019-05-06T15:37:48.544Z,1.80
2019-05-06T15:40:30.991Z,1.33
2019-05-06T15:42:50.303Z,1.93
2019-05-06T15:45:21.908Z,1.30
2019-05-06T15:47:52.420Z,1.70
2019-05-06T15:50:23.247Z,1.47
2019-05-06T15:52:54.016Z,1.43
2019-05-06T15:55:24.094Z,1.80
2019-05-06T15:57:54.118Z,1.40
2019-05-06T16:00:24.153Z,1.67
2019-05-06T16:02:54.200Z,1.60
2019-05-06T16:05:26.417Z,1.60
2019-05-06T16:07:56.794Z,1.67
2019-05-06T16:10:26.827Z,1.67
2019-05-06T16:12:56.874Z,1.80
2019-05-06T16:15:26.929Z,1.80
2019-05-06T16:17:56.958Z,1.70
2019-05-06T16:20:26.995Z,1.37
2019-05-06T16:23:16.043Z,1.60
2019-05-06T16:25:46.116Z,1.90
2019-05-06T16:28:16.129Z,1.73
2019-05-06T16:30:46.309Z,2.03
2019-05-06T16:33:18.863Z,1.53
2019-05-06T16:35:48.143Z,1.80
2019-05-06T16:38:18.211Z,1.80
2019-05-06T16:40:53.373Z,1.83
2019-05-06T16:43:22.360Z,2.13
2019-05-06T16:45:53.247Z,2.07
2019-05-06T16:48:23.591Z,2.47
2019-05-06T16:50:53.650Z,2.40
2019-05-06T16:53:23.665Z,2.50
2019-05-06T16:56:05.390Z,2.37
2019-05-06T16:58:38.184Z,2.80
2019-05-06T17:01:08.301Z,2.30
2019-05-06T17:03:46.911Z,2.23
2019-05-06T17:06:19.421Z,1.80
2019-05-06T17:08:49.575Z,2.10
2019-05-06T17:11:28.141Z,2.23
2019-05-06T17:13:52.238Z,2.00
2019-05-06T17:16:23.316Z,1.80
2019-05-06T17:18:56.405Z,2.13
2019-05-06T17:21:25.097Z,2.27
2019-05-06T17:23:55.170Z,1.93
2019-05-06T17:26:25.195Z,2.07
2019-05-06T17:29:14.053Z,2.03
2019-05-06T17:32:12.046Z,2.40
2019-05-06T17:34:45.680Z,1.97
2019-05-06T17:37:33.088Z,2.40
2019-05-06T17:40:10.463Z,2.23
2019-05-06T17:42:36.316Z,2.10
2019-05-06T17:45:25.786Z,2.30
2019-05-06T17:48:02.785Z,2.10
2019-05-06T17:50:33.351Z,1.90
2019-05-06T17:53:03.412Z,2.50
2019-05-06T17:55:34.465Z,2.30
2019-05-06T17:58:04.497Z,1.90
2019-05-06T18:00:34.545Z,2.03
2019-05-06T18:03:04.627Z,2.00
2019-05-06T18:05:34.714Z,1.83
2019-05-06T18:08:04.840Z,1.90
2019-05-06T18:10:35.019Z,2.07
2019-05-06T18:13:07.317Z,2.07
2019-05-06T18:15:37.990Z,2.10
2019-05-06T18:18:08.981Z,1.80
2019-05-06T18:20:39.023Z,1.97
2019-05-06T18:23:09.068Z,2.00
2019-05-06T18:25:39.155Z,1.90
2019-05-06T18:28:09.301Z,2.00
2019-05-06T18:30:39.316Z,2.07
2019-05-06T18:33:09.392Z,2.00
2019-05-06T18:35:39.456Z,2.00
2019-05-06T18:38:09.488Z,2.00
2019-05-06T18:40:39.538Z,1.90
2019-05-06T18:43:09.620Z,2.07
2019-05-06T18:45:41.820Z,2.30
2019-05-06T18:48:11.397Z,2.17
2019-05-06T18:50:42.391Z,2.00
2019-05-06T18:53:13.349Z,1.80
2019-05-06T18:55:43.533Z,1.70
2019-05-06T18:58:13.590Z,2.00
2019-05-06T19:00:44.081Z,1.87
2019-05-06T19:03:14.178Z,2.27
2019-05-06T19:05:44.222Z,2.83
2019-05-06T19:08:22.286Z,2.10
2019-05-06T19:10:53.172Z,2.33
2019-05-06T19:13:23.289Z,2.30
2019-05-06T19:15:53.334Z,2.53
2019-05-06T19:18:24.370Z,2.10
2019-05-06T19:20:54.502Z,2.33
2019-05-06T19:23:24.555Z,2.57
2019-05-06T19:25:54.688Z,2.40
2019-05-06T19:28:24.710Z,2.47
2019-05-06T19:30:54.763Z,2.73
2019-05-06T19:33:24.964Z,2.33
2019-05-06T19:35:54.998Z,2.50
2019-05-06T19:38:25.109Z,2.53
2019-05-06T19:40:55.176Z,2.37
2019-05-06T19:43:25.213Z,2.33
2019-05-06T19:45:55.261Z,2.50
2019-05-06T19:48:25.329Z,2.63
2019-05-06T19:50:55.365Z,2.70
2019-05-06T19:53:25.417Z,2.30
2019-05-06T19:55:55.489Z,2.60
2019-05-06T19:58:25.530Z,3.10
2019-05-06T20:00:56.440Z,2.53
2019-05-06T20:03:26.501Z,2.40
2019-05-06T20:06:19.731Z,2.50
2019-05-06T20:08:56.047Z,2.20
2019-05-06T20:11:32.969Z,2.43
2019-05-06T20:14:02.676Z,2.90
2019-05-06T20:16:33.313Z,2.53
2019-05-06T20:19:03.388Z,2.37
2019-05-06T20:21:33.458Z,2.60
2019-05-06T20:24:03.505Z,2.37
2019-05-06T20:26:33.597Z,2.83
2019-05-06T20:29:04.653Z,2.30
2019-05-06T20:31:34.681Z,2.33
2019-05-06T20:34:04.829Z,2.90
2019-05-06T20:36:34.862Z,2.20
2019-05-06T20:39:06.699Z,2.40
2019-05-06T20:41:38.009Z,2.67
2019-05-06T20:44:08.068Z,2.47
2019-05-06T20:46:38.101Z,2.63
2019-05-06T20:49:08.181Z,2.97
2019-05-06T20:51:38.237Z,2.40
2019-05-06T20:54:08.278Z,2.40
2019-05-06T20:56:38.337Z,2.63
2019-05-06T20:59:08.401Z,3.00
2019-05-06T21:01:38.430Z,2.67
2019-05-06T21:04:08.567Z,2.63
2019-05-06T21:06:38.601Z,2.80
2019-05-06T21:09:08.732Z,2.77
2019-05-06T21:11:41.907Z,2.87
2019-05-06T21:14:13.214Z,2.83
2019-05-06T21:16:44.334Z,3.23
2019-05-06T21:19:14.485Z,2.83
2019-05-06T21:21:44.487Z,3.17
2019-05-06T21:24:14.623Z,3.00
2019-05-06T21:26:46.460Z,3.43
2019-05-06T21:29:16.368Z,3.20
2019-05-06T21:31:46.413Z,3.33
2019-05-06T21:34:16.448Z,3.20
2019-05-06T21:36:46.506Z,3.13
2019-05-06T21:39:16.544Z,3.47
2019-05-06T21:41:46.601Z,3.50
2019-05-06T21:44:16.721Z,3.30
2019-05-06T21:46:46.740Z,3.23
2019-05-06T21:49:16.796Z,3.37
2019-05-06T21:51:46.824Z,3.73
2019-05-06T21:54:16.875Z,4.03
2019-05-06T21:56:46.931Z,3.70
2019-05-06T21:59:16.954Z,3.77
2019-05-06T22:01:47.008Z,3.40
2019-05-06T22:04:17.049Z,4.23
2019-05-06T22:06:47.080Z,3.60
2019-05-06T22:09:18.300Z,3.47
2019-05-06T22:11:52.921Z,4.07
2019-05-06T22:14:23.220Z,4.40
2019-05-06T22:16:53.225Z,4.20
2019-05-06T22:19:24.248Z,4.33
2019-05-06T22:22:00.156Z,3.90
2019-05-06T22:24:44.857Z,4.07
2019-05-06T22:27:15.113Z,4.70
2019-05-06T22:29:45.172Z,4.40
2019-05-06T22:32:15.202Z,4.27
2019-05-06T22:34:45.253Z,4.37
2019-05-06T22:37:15.300Z,4.43
2019-05-06T22:39:45.329Z,4.10
2019-05-06T22:42:15.369Z,4.43
2019-05-06T22:44:45.384Z,3.93
2019-05-06T22:47:15.429Z,4.03
2019-05-06T22:49:45.473Z,4.10
2019-05-06T22:52:16.488Z,4.07
2019-05-06T22:54:46.525Z,4.30
2019-05-06T22:57:16.573Z,4.50
2019-05-06T22:59:46.632Z,4.33
2019-05-06T23:02:26.082Z,4.10
2019-05-06T23:04:58.296Z,4.40
2019-05-06T23:07:28.325Z,4.50
2019-05-06T23:09:58.452Z,4.87
2019-05-06T23:12:28.518Z,3.77
2019-05-06T23:14:58.569Z,4.13
2019-05-06T23:17:28.582Z,4.67
2019-05-06T23:19:59.601Z,4.43
2019-05-06T23:22:31.566Z,4.10
2019-05-06T23:25:02.237Z,4.80
2019-05-06T23:27:32.498Z,4.47
2019-05-06T23:30:03.171Z,4.67
2019-05-06T23:32:34.240Z,4.60
2019-05-06T23:35:04.332Z,4.27
2019-05-06T23:37:32.829Z,4.70
2019-05-06T23:40:42.722Z,4.27
2019-05-06T23:43:48.399Z,4.33
2019-05-06T23:46:53.869Z,4.73
2019-05-06T23:49:59.364Z,4.33
2019-05-06T23:53:05.022Z,4.77
2019-05-06T23:56:10.632Z,4.40
2019-05-06T23:58:42.757Z,4.90
